createdAt,value
2023-02-26T00:00:37.097Z,5
2023-02-26T00:01:44.099Z,5
2023-02-26T00:02:51.689Z,4
2023-02-26T00:04:00.899Z,4
2023-02-26T00:05:08.342Z,4
2023-02-26T00:06:15.368Z,4
2023-02-26T00:07:22.243Z,4
2023-02-26T00:08:31.486Z,4
2023-02-26T00:09:39.320Z,3
2023-02-26T00:10:47.362Z,4
2023-02-26T00:11:54.284Z,4
2023-02-26T00:13:01.670Z,4
2023-02-26T00:14:08.588Z,4
2023-02-26T00:15:15.635Z,4
2023-02-26T00:16:23.711Z,5
2023-02-26T00:17:33.015Z,5
2023-02-26T00:18:47.078Z,5
2023-02-26T00:19:54.084Z,5
2023-02-26T00:21:06.647Z,5
2023-02-26T00:22:13.594Z,5
2023-02-26T00:23:21.550Z,6
2023-02-26T00:24:28.504Z,6
2023-02-26T00:25:36.987Z,6
2023-02-26T00:26:43.915Z,6
2023-02-26T00:27:52.391Z,7
2023-02-26T00:28:59.464Z,6
2023-02-26T00:30:06.291Z,6
2023-02-26T00:31:13.519Z,6
2023-02-26T00:32:21.595Z,7
2023-02-26T00:33:28.332Z,7
2023-02-26T00:34:35.480Z,7
2023-02-26T00:35:42.648Z,8
2023-02-26T00:36:49.613Z,8
2023-02-26T00:38:01.734Z,9
2023-02-26T00:39:14.826Z,9
2023-02-26T00:40:29.247Z,9
2023-02-26T00:41:42.286Z,11
2023-02-26T00:42:52.528Z,10
2023-02-26T00:43:59.581Z,10
2023-02-26T00:45:06.609Z,12
2023-02-26T00:46:15.833Z,11
2023-02-26T00:47:27.802Z,11
2023-02-26T00:48:44.941Z,11
2023-02-26T00:49:54.237Z,11
2023-02-26T00:51:11.404Z,11
2023-02-26T00:52:25.330Z,11
2023-02-26T00:53:32.316Z,11
2023-02-26T00:54:39.428Z,10
2023-02-26T00:55:47.586Z,10
2023-02-26T00:56:54.757Z,9
2023-02-26T00:58:04.678Z,9
2023-02-26T00:59:12.730Z,8
2023-02-26T01:00:19.779Z,8
2023-02-26T01:01:26.880Z,7
2023-02-26T01:02:33.762Z,8
2023-02-26T01:03:41.751Z,7
2023-02-26T01:04:49.428Z,7
2023-02-26T01:05:56.402Z,7
2023-02-26T01:07:03.499Z,7
2023-02-26T01:08:11.392Z,7
2023-02-26T01:09:26.433Z,6
2023-02-26T01:10:35.998Z,6
2023-02-26T01:11:43.004Z,5
2023-02-26T01:12:50.040Z,5
2023-02-26T01:13:57.067Z,5
2023-02-26T01:15:05.195Z,5
2023-02-26T01:16:14.857Z,5
2023-02-26T01:17:21.651Z,5
2023-02-26T01:18:30.144Z,5
2023-02-26T01:19:40.715Z,4
2023-02-26T01:20:52.861Z,5
2023-02-26T01:21:59.877Z,5
2023-02-26T01:23:07.702Z,4
2023-02-26T01:24:24.039Z,5
2023-02-26T01:25:32.189Z,4
2023-02-26T01:26:44.796Z,4
2023-02-26T01:27:53.818Z,4
2023-02-26T01:29:02.811Z,4
2023-02-26T01:30:09.877Z,4
2023-02-26T01:31:20.121Z,4
2023-02-26T01:32:35.076Z,4
2023-02-26T01:33:47.080Z,4
2023-02-26T01:34:56.910Z,4
2023-02-26T01:36:08.963Z,4
2023-02-26T01:37:15.922Z,4
2023-02-26T01:38:28.062Z,4
2023-02-26T01:39:47.024Z,4
2023-02-26T01:40:56.964Z,5
2023-02-26T01:42:08.981Z,4
2023-02-26T01:43:23.255Z,3
2023-02-26T01:44:35.805Z,4
2023-02-26T01:45:46.482Z,4
2023-02-26T01:46:57.162Z,4
2023-02-26T01:48:14.368Z,3
2023-02-26T01:49:24.221Z,3
2023-02-26T01:50:31.234Z,3
2023-02-26T01:51:39.253Z,3
2023-02-26T01:52:51.280Z,3
2023-02-26T01:54:06.459Z,3
2023-02-26T01:55:14.543Z,4
2023-02-26T01:56:24.674Z,4
2023-02-26T01:57:32.841Z,4
2023-02-26T01:58:39.880Z,4
2023-02-26T01:59:48.485Z,4
2023-02-26T02:00:56.504Z,4
2023-02-26T02:02:03.698Z,3
2023-02-26T02:03:11.565Z,4
2023-02-26T02:04:18.577Z,4
2023-02-26T02:05:25.565Z,4
2023-02-26T02:06:35.484Z,3
2023-02-26T02:07:42.369Z,3
2023-02-26T02:08:49.904Z,4
2023-02-26T02:09:58.316Z,4
2023-02-26T02:11:05.242Z,3
2023-02-26T02:12:14.206Z,3
2023-02-26T02:13:26.231Z,4
2023-02-26T02:14:33.197Z,4
2023-02-26T02:15:50.589Z,3
2023-02-26T02:17:02.827Z,4
2023-02-26T02:18:17.549Z,4
2023-02-26T02:19:24.528Z,3
2023-02-26T02:20:41.873Z,4
2023-02-26T02:21:55.458Z,4
2023-02-26T02:23:13.673Z,4
2023-02-26T02:24:22.850Z,4
2023-02-26T02:25:39.968Z,4
2023-02-26T02:26:53.030Z,4
2023-02-26T02:28:02.810Z,3
2023-02-26T02:29:17.563Z,4
2023-02-26T02:30:29.584Z,4
2023-02-26T02:31:43.951Z,4
2023-02-26T02:32:55.848Z,4
2023-02-26T02:34:05.293Z,4
2023-02-26T02:35:21.114Z,4
2023-02-26T02:36:29.952Z,4
2023-02-26T02:37:47.081Z,4
2023-02-26T02:38:53.929Z,4
2023-02-26T02:40:01.917Z,4
2023-02-26T02:41:11.471Z,4
2023-02-26T02:42:18.364Z,5
2023-02-26T02:43:26.472Z,5
2023-02-26T02:44:33.581Z,5
2023-02-26T02:45:44.090Z,4
2023-02-26T02:46:58.810Z,4
2023-02-26T02:48:05.693Z,4
2023-02-26T02:49:15.190Z,4
2023-02-26T02:50:27.273Z,4
2023-02-26T02:51:35.110Z,4
2023-02-26T02:52:48.529Z,4
2023-02-26T02:54:01.022Z,3
2023-02-26T02:55:08.119Z,3
2023-02-26T02:56:21.697Z,4
2023-02-26T02:57:31.874Z,3
2023-02-26T02:58:38.705Z,3
2023-02-26T02:59:45.638Z,3
2023-02-26T03:00:52.570Z,4
2023-02-26T03:02:00.433Z,3
2023-02-26T03:03:07.398Z,3
2023-02-26T03:04:19.495Z,3
2023-02-26T03:05:26.353Z,3
2023-02-26T03:06:33.920Z,3
2023-02-26T03:07:41.493Z,3
2023-02-26T03:08:54.856Z,3
2023-02-26T03:10:01.801Z,4
2023-02-26T03:11:08.785Z,4
2023-02-26T03:12:15.618Z,3
2023-02-26T03:13:22.461Z,3
2023-02-26T03:14:29.472Z,3
2023-02-26T03:15:36.433Z,3
2023-02-26T03:16:48.562Z,4
2023-02-26T03:18:00.632Z,4
2023-02-26T03:19:15.597Z,3
2023-02-26T03:20:30.600Z,3
2023-02-26T03:21:41.977Z,4
2023-02-26T03:22:57.998Z,3
2023-02-26T03:24:07.746Z,4
2023-02-26T03:25:19.821Z,3
2023-02-26T03:26:31.135Z,3
2023-02-26T03:27:43.138Z,3
2023-02-26T03:28:52.899Z,3
2023-02-26T03:30:06.518Z,4
2023-02-26T03:31:18.610Z,4
2023-02-26T03:32:33.846Z,4
2023-02-26T03:33:42.044Z,4
2023-02-26T03:35:00.860Z,4
2023-02-26T03:36:13.043Z,4
2023-02-26T03:37:24.103Z,4
2023-02-26T03:38:37.105Z,4
2023-02-26T03:39:49.052Z,4
2023-02-26T03:40:57.836Z,4
2023-02-26T03:42:05.720Z,4
2023-02-26T03:43:20.527Z,4
2023-02-26T03:44:33.832Z,4
2023-02-26T03:45:40.857Z,4
2023-02-26T03:46:47.583Z,4
2023-02-26T03:47:58.227Z,5
2023-02-26T03:49:05.582Z,5
2023-02-26T03:50:12.402Z,5
2023-02-26T03:51:27.114Z,5
2023-02-26T03:52:36.365Z,4
2023-02-26T03:53:43.245Z,4
2023-02-26T03:54:54.552Z,4
2023-02-26T03:56:02.281Z,4
2023-02-26T03:57:12.125Z,4
2023-02-26T03:58:19.053Z,4
2023-02-26T03:59:29.304Z,4
2023-02-26T04:00:36.288Z,5
2023-02-26T04:01:43.193Z,6
2023-02-26T04:02:55.427Z,5
2023-02-26T04:04:02.484Z,6
2023-02-26T04:05:09.432Z,7
2023-02-26T04:06:19.437Z,7
2023-02-26T04:07:26.619Z,6
2023-02-26T04:08:33.770Z,5
2023-02-26T04:09:40.661Z,4
2023-02-26T04:10:47.642Z,5
2023-02-26T04:12:02.542Z,5
2023-02-26T04:13:09.616Z,5
2023-02-26T04:14:16.545Z,5
2023-02-26T04:15:23.532Z,5
2023-02-26T04:16:31.009Z,4
2023-02-26T04:17:37.901Z,4
2023-02-26T04:18:44.732Z,5
2023-02-26T04:19:51.678Z,5
2023-02-26T04:20:58.564Z,4
2023-02-26T04:22:06.398Z,4
2023-02-26T04:23:13.274Z,4
2023-02-26T04:24:21.051Z,4
2023-02-26T04:25:28.901Z,4
2023-02-26T04:26:36.748Z,4
2023-02-26T04:27:46.460Z,4
2023-02-26T04:28:54.033Z,4
2023-02-26T04:30:01.189Z,4
2023-02-26T04:31:09.355Z,4
2023-02-26T04:32:15.398Z,5
2023-02-26T04:33:22.137Z,4
2023-02-26T04:34:29.116Z,4
2023-02-26T04:35:36.084Z,4
2023-02-26T04:36:45.255Z,4
2023-02-26T04:37:52.228Z,4
2023-02-26T04:39:00.838Z,4
2023-02-26T04:40:07.702Z,4
2023-02-26T04:41:14.908Z,3
2023-02-26T04:42:21.675Z,4
2023-02-26T04:43:28.549Z,4
2023-02-26T04:44:35.644Z,4
2023-02-26T04:45:43.898Z,3
2023-02-26T04:46:50.815Z,4
2023-02-26T04:48:00.378Z,4
2023-02-26T04:49:08.156Z,4
2023-02-26T04:50:14.985Z,4
2023-02-26T04:51:21.923Z,5
2023-02-26T04:52:28.836Z,5
2023-02-26T04:53:37.369Z,5
2023-02-26T04:54:45.747Z,5
2023-02-26T04:55:52.686Z,4
2023-02-26T04:56:59.435Z,5
2023-02-26T04:58:08.221Z,5
2023-02-26T04:59:15.148Z,5
2023-02-26T05:00:22.160Z,4
2023-02-26T05:01:29.204Z,5
2023-02-26T05:02:35.965Z,4
2023-02-26T05:03:44.456Z,4
2023-02-26T05:04:51.311Z,4
2023-02-26T05:05:58.170Z,5
2023-02-26T05:07:05.966Z,4
2023-02-26T05:08:12.893Z,4
2023-02-26T05:09:19.766Z,4
2023-02-26T05:10:26.618Z,4
2023-02-26T05:11:33.455Z,4
2023-02-26T05:12:40.292Z,4
2023-02-26T05:13:48.202Z,4
2023-02-26T05:14:56.495Z,4
2023-02-26T05:16:03.482Z,4
2023-02-26T05:17:11.252Z,4
2023-02-26T05:18:18.145Z,4
2023-02-26T05:19:25.047Z,3
2023-02-26T05:20:31.994Z,4
2023-02-26T05:21:39.788Z,4
2023-02-26T05:22:47.804Z,4
2023-02-26T05:23:54.766Z,5
2023-02-26T05:25:01.713Z,5
2023-02-26T05:26:09.189Z,5
2023-02-26T05:27:16.148Z,4
2023-02-26T05:28:23.010Z,4
2023-02-26T05:29:29.842Z,4
2023-02-26T05:30:37.707Z,5
2023-02-26T05:31:45.501Z,5
2023-02-26T05:32:52.156Z,5
2023-02-26T05:34:00.075Z,4
2023-02-26T05:35:07.248Z,4
2023-02-26T05:36:14.188Z,4
2023-02-26T05:37:21.197Z,4
2023-02-26T05:38:29.909Z,4
2023-02-26T05:39:36.754Z,4
2023-02-26T05:40:46.367Z,4
2023-02-26T05:41:53.338Z,4
2023-02-26T05:43:01.359Z,4
2023-02-26T05:44:09.288Z,4
2023-02-26T05:45:18.931Z,5
2023-02-26T05:46:28.080Z,5
2023-02-26T05:47:34.684Z,3
2023-02-26T05:48:45.669Z,4
2023-02-26T05:49:50.854Z,4
2023-02-26T05:50:57.883Z,4
2023-02-26T05:52:04.709Z,4
2023-02-26T05:53:11.636Z,4
2023-02-26T05:54:20.670Z,4
2023-02-26T05:55:27.582Z,4
2023-02-26T05:56:35.162Z,3
2023-02-26T05:57:42.980Z,3
2023-02-26T05:58:49.833Z,3
2023-02-26T05:59:56.728Z,4
2023-02-26T06:01:03.699Z,4
2023-02-26T06:02:10.571Z,3
2023-02-26T06:03:18.163Z,3
2023-02-26T06:04:28.273Z,4
2023-02-26T06:05:38.148Z,4
2023-02-26T06:06:44.941Z,4
2023-02-26T06:07:52.378Z,4
2023-02-26T06:08:59.288Z,4
2023-02-26T06:10:06.355Z,4
2023-02-26T06:11:14.608Z,4
2023-02-26T06:12:21.587Z,4
2023-02-26T06:13:28.530Z,4
2023-02-26T06:14:35.448Z,4
2023-02-26T06:15:42.383Z,4
2023-02-26T06:16:49.335Z,4
2023-02-26T06:17:56.452Z,4
2023-02-26T06:19:03.386Z,4
2023-02-26T06:20:12.139Z,4
2023-02-26T06:21:19.320Z,4
2023-02-26T06:22:27.682Z,4
2023-02-26T06:23:34.903Z,5
2023-02-26T06:24:42.746Z,4
2023-02-26T06:25:50.142Z,5
2023-02-26T06:26:58.326Z,4
2023-02-26T06:28:06.096Z,5
2023-02-26T06:29:13.815Z,6
2023-02-26T06:30:20.705Z,6
2023-02-26T06:31:29.243Z,6
2023-02-26T06:32:36.640Z,6
2023-02-26T06:33:44.761Z,5
2023-02-26T06:34:51.840Z,4
2023-02-26T06:35:58.724Z,4
2023-02-26T06:37:05.536Z,5
2023-02-26T06:38:13.447Z,4
2023-02-26T06:39:20.326Z,3
2023-02-26T06:40:29.060Z,4
2023-02-26T06:41:36.327Z,3
2023-02-26T06:42:46.189Z,3
2023-02-26T06:43:54.086Z,3
2023-02-26T06:45:01.053Z,3
2023-02-26T06:46:08.113Z,3
2023-02-26T06:47:15.251Z,4
2023-02-26T06:48:24.703Z,3
2023-02-26T06:49:32.543Z,4
2023-02-26T06:50:39.899Z,4
2023-02-26T06:51:46.808Z,4
2023-02-26T06:52:55.570Z,4
2023-02-26T06:54:02.532Z,3
2023-02-26T06:55:09.469Z,4
2023-02-26T06:56:16.358Z,4
2023-02-26T06:57:25.264Z,4
2023-02-26T06:58:32.198Z,3
2023-02-26T06:59:40.648Z,4
2023-02-26T07:00:47.727Z,4
2023-02-26T07:01:57.909Z,3
2023-02-26T07:03:04.853Z,3
2023-02-26T07:04:20.330Z,4
2023-02-26T07:05:25.207Z,4
2023-02-26T07:06:32.127Z,4
2023-02-26T07:07:39.852Z,5
2023-02-26T07:08:46.851Z,4
2023-02-26T07:09:53.718Z,5
2023-02-26T07:11:00.718Z,5
2023-02-26T07:12:07.810Z,4
2023-02-26T07:13:15.428Z,4
2023-02-26T07:14:22.296Z,4
2023-02-26T07:15:29.188Z,4
2023-02-26T07:16:36.216Z,4
2023-02-26T07:17:43.104Z,5
2023-02-26T07:18:49.965Z,5
2023-02-26T07:19:56.914Z,5
2023-02-26T07:21:04.801Z,5
2023-02-26T07:22:11.582Z,6
2023-02-26T07:23:19.729Z,6
2023-02-26T07:24:26.954Z,6
2023-02-26T07:25:33.804Z,6
2023-02-26T07:26:40.747Z,5
2023-02-26T07:27:48.766Z,5
2023-02-26T07:28:55.663Z,5
2023-02-26T07:30:02.517Z,4
2023-02-26T07:31:09.867Z,4
2023-02-26T07:32:17.220Z,4
2023-02-26T07:33:23.964Z,4
2023-02-26T07:34:30.824Z,4
2023-02-26T07:35:37.900Z,4
2023-02-26T07:36:46.623Z,4
2023-02-26T07:37:53.619Z,4
2023-02-26T07:39:03.782Z,3
2023-02-26T07:40:11.017Z,4
2023-02-26T07:41:17.879Z,4
2023-02-26T07:42:25.622Z,3
2023-02-26T07:43:32.583Z,5
2023-02-26T07:44:40.562Z,6
2023-02-26T07:45:47.455Z,11
2023-02-26T07:46:54.322Z,13
2023-02-26T07:48:02.114Z,8
2023-02-26T07:49:08.918Z,9
2023-02-26T07:50:15.782Z,7
2023-02-26T07:51:23.050Z,6
2023-02-26T07:52:29.743Z,6
2023-02-26T07:53:38.985Z,6
2023-02-26T07:54:45.854Z,7
2023-02-26T07:55:55.318Z,5
2023-02-26T07:57:02.392Z,6
2023-02-26T07:58:09.383Z,7
2023-02-26T07:59:16.341Z,6
2023-02-26T08:00:26.629Z,6
2023-02-26T08:01:34.577Z,6
2023-02-26T08:02:43.592Z,10
2023-02-26T08:03:50.435Z,13
2023-02-26T08:04:57.616Z,17
2023-02-26T08:06:04.664Z,15
2023-02-26T08:07:12.440Z,20
2023-02-26T08:08:21.588Z,14
2023-02-26T08:09:28.610Z,8
2023-02-26T08:10:35.623Z,14
2023-02-26T08:11:42.550Z,14
2023-02-26T08:12:49.399Z,5
2023-02-26T08:13:56.240Z,8
2023-02-26T08:15:03.874Z,4
2023-02-26T08:16:11.070Z,4
2023-02-26T08:17:19.384Z,12
2023-02-26T08:18:26.263Z,8
2023-02-26T08:19:33.107Z,4
2023-02-26T08:20:39.926Z,11
2023-02-26T08:21:50.606Z,20
2023-02-26T08:22:55.913Z,12
2023-02-26T08:24:03.081Z,17
2023-02-26T08:25:10.194Z,21
2023-02-26T08:26:17.242Z,12
2023-02-26T08:27:24.157Z,6
2023-02-26T08:28:32.589Z,8
2023-02-26T08:29:39.501Z,12
2023-02-26T08:30:46.607Z,37
2023-02-26T08:31:53.691Z,86
2023-02-26T08:33:00.385Z,60
2023-02-26T08:34:07.336Z,73
2023-02-26T08:35:14.268Z,27
2023-02-26T08:36:21.200Z,27
2023-02-26T08:37:28.372Z,14
2023-02-26T08:38:35.352Z,10
2023-02-26T08:39:42.237Z,11
2023-02-26T08:40:50.493Z,16
2023-02-26T08:41:57.377Z,20
2023-02-26T08:43:05.424Z,19
2023-02-26T08:44:13.530Z,10
2023-02-26T08:45:20.577Z,14
2023-02-26T08:46:29.845Z,29
2023-02-26T08:47:39.512Z,50
2023-02-26T08:48:43.276Z,102
2023-02-26T08:49:50.185Z,113
2023-02-26T08:50:58.772Z,18
2023-02-26T08:52:06.175Z,10
2023-02-26T08:53:13.547Z,9
2023-02-26T08:54:20.468Z,10
2023-02-26T08:55:30.658Z,7
2023-02-26T08:56:37.512Z,8
2023-02-26T08:57:44.370Z,9
2023-02-26T08:58:51.192Z,10
2023-02-26T08:59:58.220Z,9
2023-02-26T09:01:05.312Z,10
2023-02-26T09:02:12.297Z,16
2023-02-26T09:03:19.163Z,9
2023-02-26T09:04:26.007Z,7
2023-02-26T09:05:32.907Z,5
2023-02-26T09:06:39.743Z,5
2023-02-26T09:07:46.524Z,6
2023-02-26T09:08:53.336Z,6
2023-02-26T09:10:00.154Z,5
2023-02-26T09:11:07.232Z,6
2023-02-26T09:12:14.139Z,8
2023-02-26T09:13:20.932Z,8
2023-02-26T09:14:27.815Z,7
2023-02-26T09:15:34.683Z,11
2023-02-26T09:16:41.564Z,6
2023-02-26T09:17:48.492Z,7
2023-02-26T09:18:55.464Z,7
2023-02-26T09:20:02.265Z,5
2023-02-26T09:21:09.207Z,6
2023-02-26T09:22:16.091Z,5
2023-02-26T09:23:22.928Z,5
2023-02-26T09:24:29.908Z,7
2023-02-26T09:25:36.755Z,4
2023-02-26T09:26:43.645Z,3
2023-02-26T09:27:50.400Z,5
2023-02-26T09:28:57.214Z,5
2023-02-26T09:30:04.083Z,5
2023-02-26T09:31:11.262Z,7
2023-02-26T09:32:18.202Z,8
2023-02-26T09:33:24.959Z,7
2023-02-26T09:34:31.896Z,7
2023-02-26T09:35:38.867Z,5
2023-02-26T09:36:45.716Z,6
2023-02-26T09:37:52.614Z,5
2023-02-26T09:38:59.476Z,5
2023-02-26T09:40:06.347Z,5
2023-02-26T09:41:21.336Z,5
2023-02-26T09:42:28.206Z,6
2023-02-26T09:43:34.995Z,6
2023-02-26T09:44:42.096Z,6
2023-02-26T09:45:49.142Z,5
2023-02-26T09:46:56.029Z,5
2023-02-26T09:48:08.090Z,4
2023-02-26T09:49:14.960Z,5
2023-02-26T09:50:21.849Z,6
2023-02-26T09:51:31.668Z,5
2023-02-26T09:52:38.602Z,5
2023-02-26T09:53:48.509Z,6
2023-02-26T09:54:55.400Z,7
2023-02-26T09:56:07.461Z,8
2023-02-26T09:57:14.345Z,8
2023-02-26T09:58:31.612Z,10
2023-02-26T09:59:38.502Z,7
2023-02-26T10:00:45.409Z,7
2023-02-26T10:02:02.807Z,4
2023-02-26T10:03:19.961Z,3
2023-02-26T10:04:37.241Z,4
2023-02-26T10:05:46.815Z,4
2023-02-26T10:07:04.022Z,4
2023-02-26T10:08:16.236Z,4
2023-02-26T10:09:23.245Z,3
2023-02-26T10:10:35.506Z,2
2023-02-26T10:11:52.744Z,3
2023-02-26T10:13:01.686Z,3
2023-02-26T10:14:08.485Z,3
2023-02-26T10:15:15.887Z,3
2023-02-26T10:16:27.041Z,3
2023-02-26T10:17:33.770Z,3
2023-02-26T10:18:48.583Z,4
2023-02-26T10:19:58.186Z,3
2023-02-26T10:21:06.254Z,3
2023-02-26T10:22:18.186Z,3
2023-02-26T10:23:25.017Z,2
2023-02-26T10:24:35.082Z,2
2023-02-26T10:25:42.673Z,3
2023-02-26T10:26:49.449Z,2
2023-02-26T10:28:00.542Z,2
2023-02-26T10:29:17.530Z,2
2023-02-26T10:30:29.430Z,3
2023-02-26T10:31:44.064Z,2
2023-02-26T10:33:00.993Z,2
2023-02-26T10:34:15.925Z,2
2023-02-26T10:35:32.858Z,2
2023-02-26T10:36:39.652Z,3
2023-02-26T10:37:56.515Z,3
2023-02-26T10:39:06.111Z,3
2023-02-26T10:40:18.997Z,3
2023-02-26T10:41:35.886Z,3
2023-02-26T10:42:42.780Z,4
2023-02-26T10:43:54.719Z,3
2023-02-26T10:45:06.577Z,3
2023-02-26T10:46:23.566Z,3
2023-02-26T10:47:38.285Z,3
2023-02-26T10:48:55.297Z,4
2023-02-26T10:50:12.272Z,4
2023-02-26T10:51:19.073Z,3
2023-02-26T10:52:26.794Z,3
2023-02-26T10:53:33.563Z,3
2023-02-26T10:54:40.484Z,3
2023-02-26T10:55:47.298Z,4
2023-02-26T10:56:55.405Z,3
2023-02-26T10:58:02.257Z,4
2023-02-26T10:59:16.427Z,4
2023-02-26T11:00:20.975Z,4
2023-02-26T11:01:28.363Z,3
2023-02-26T11:02:34.735Z,3
2023-02-26T11:03:44.616Z,4
2023-02-26T11:04:59.237Z,4
2023-02-26T11:05:58.452Z,4
2023-02-26T11:07:05.499Z,5
2023-02-26T11:08:13.188Z,6
2023-02-26T11:09:27.766Z,5
2023-02-26T11:10:39.822Z,4
2023-02-26T11:11:51.851Z,5
2023-02-26T11:12:58.718Z,5
2023-02-26T11:14:05.571Z,4
2023-02-26T11:15:12.435Z,4
2023-02-26T11:16:22.241Z,8
2023-02-26T11:17:28.990Z,5
2023-02-26T11:18:35.997Z,4
2023-02-26T11:19:47.926Z,4
2023-02-26T11:20:59.811Z,3
2023-02-26T11:22:06.687Z,3
2023-02-26T11:23:16.431Z,2
2023-02-26T11:24:24.048Z,3
2023-02-26T11:25:36.292Z,4
2023-02-26T11:26:42.859Z,3
2023-02-26T11:27:49.821Z,2
2023-02-26T11:28:56.635Z,2
2023-02-26T11:30:03.519Z,3
2023-02-26T11:31:15.763Z,4
2023-02-26T11:32:23.206Z,3
2023-02-26T11:33:32.964Z,3
2023-02-26T11:34:42.381Z,3
2023-02-26T11:35:49.487Z,3
2023-02-26T11:36:56.316Z,4
2023-02-26T11:38:03.383Z,5
2023-02-26T11:39:10.300Z,4
2023-02-26T11:40:17.982Z,4
2023-02-26T11:41:28.678Z,6
2023-02-26T11:42:35.397Z,24
2023-02-26T11:43:44.542Z,16
2023-02-26T11:44:49.094Z,16
2023-02-26T11:45:56.205Z,11
2023-02-26T11:47:02.958Z,9
2023-02-26T11:48:14.946Z,25
2023-02-26T11:49:24.829Z,8
2023-02-26T11:50:32.904Z,8
2023-02-26T11:51:47.801Z,11
2023-02-26T11:53:04.859Z,16
2023-02-26T11:54:11.718Z,21
2023-02-26T11:55:26.221Z,9
2023-02-26T11:56:33.083Z,17
2023-02-26T11:57:44.449Z,22
2023-02-26T11:58:55.297Z,13
2023-02-26T12:00:00.873Z,12
2023-02-26T12:01:08.906Z,7
2023-02-26T12:02:16.826Z,11
2023-02-26T12:03:26.360Z,10
2023-02-26T12:04:34.379Z,9
2023-02-26T12:05:41.285Z,8
2023-02-26T12:06:48.091Z,8
2023-02-26T12:07:55.029Z,16
2023-02-26T12:09:01.878Z,9
2023-02-26T12:10:16.901Z,8
2023-02-26T12:11:23.729Z,7
2023-02-26T12:12:38.340Z,5
2023-02-26T12:13:50.302Z,10
2023-02-26T12:15:07.373Z,9
2023-02-26T12:16:24.390Z,9
2023-02-26T12:17:42.167Z,6
2023-02-26T12:18:59.235Z,11
2023-02-26T12:20:09.420Z,4
2023-02-26T12:21:24.415Z,4
2023-02-26T12:22:38.747Z,5
2023-02-26T12:23:55.704Z,5
2023-02-26T12:25:12.622Z,5
2023-02-26T12:26:24.491Z,3
2023-02-26T12:27:39.384Z,4
2023-02-26T12:28:52.148Z,4
2023-02-26T12:30:09.118Z,5
2023-02-26T12:31:26.481Z,7
2023-02-26T12:32:38.182Z,4
2023-02-26T12:33:50.166Z,6
2023-02-26T12:35:07.131Z,6
2023-02-26T12:36:19.043Z,12
2023-02-26T12:37:30.937Z,7
2023-02-26T12:38:47.923Z,6
2023-02-26T12:39:57.386Z,13
2023-02-26T12:41:09.266Z,7
2023-02-26T12:42:21.214Z,5
2023-02-26T12:43:28.025Z,11
2023-02-26T12:44:39.913Z,5
2023-02-26T12:45:56.851Z,5
2023-02-26T12:47:11.565Z,5
2023-02-26T12:48:28.539Z,5
2023-02-26T12:49:40.449Z,7
2023-02-26T12:50:54.849Z,7
2023-02-26T12:52:11.792Z,6
2023-02-26T12:53:24.860Z,7
2023-02-26T12:54:36.822Z,5
2023-02-26T12:55:48.763Z,6
2023-02-26T12:56:58.257Z,5
2023-02-26T12:58:07.901Z,4
2023-02-26T12:59:25.035Z,4
2023-02-26T13:00:37.092Z,4
2023-02-26T13:01:56.117Z,4
2023-02-26T13:03:04.549Z,4
2023-02-26T13:04:14.409Z,3
2023-02-26T13:05:26.269Z,4
2023-02-26T13:06:41.496Z,4
2023-02-26T13:07:58.598Z,4
2023-02-26T13:09:08.002Z,6
2023-02-26T13:10:20.173Z,4
2023-02-26T13:11:35.886Z,4
2023-02-26T13:12:50.674Z,4
2023-02-26T13:14:08.218Z,4
2023-02-26T13:15:25.173Z,4
2023-02-26T13:16:42.174Z,4
2023-02-26T13:17:59.413Z,6
2023-02-26T13:19:11.582Z,6
2023-02-26T13:20:21.300Z,5
2023-02-26T13:21:28.718Z,5
2023-02-26T13:22:42.945Z,6
2023-02-26T13:23:52.399Z,5
2023-02-26T13:25:07.127Z,5
2023-02-26T13:26:24.099Z,6
2023-02-26T13:27:31.115Z,4
2023-02-26T13:28:39.185Z,3
2023-02-26T13:29:54.632Z,4
2023-02-26T13:31:09.971Z,4
2023-02-26T13:32:28.170Z,4
2023-02-26T13:33:35.855Z,5
2023-02-26T13:34:42.813Z,6
2023-02-26T13:35:59.801Z,5
2023-02-26T13:37:06.732Z,6
2023-02-26T13:38:18.604Z,6
2023-02-26T13:39:33.424Z,7
2023-02-26T13:40:43.446Z,11
2023-02-26T13:41:55.400Z,13
2023-02-26T13:43:07.358Z,8
2023-02-26T13:44:19.249Z,7
2023-02-26T13:45:36.202Z,7
2023-02-26T13:46:48.073Z,6
2023-02-26T13:47:57.724Z,5
2023-02-26T13:49:09.467Z,5
2023-02-26T13:50:28.007Z,5
2023-02-26T13:51:40.787Z,5
2023-02-26T13:52:50.620Z,5
2023-02-26T13:53:59.989Z,5
2023-02-26T13:55:06.967Z,6
2023-02-26T13:56:13.988Z,6
2023-02-26T13:57:20.940Z,8
2023-02-26T13:58:36.360Z,7
2023-02-26T13:59:43.373Z,6
2023-02-26T14:00:50.178Z,6
2023-02-26T14:01:59.817Z,6
2023-02-26T14:03:16.757Z,6
2023-02-26T14:04:28.716Z,8
2023-02-26T14:05:36.563Z,9
2023-02-26T14:06:51.110Z,9
2023-02-26T14:08:03.249Z,8
2023-02-26T14:09:17.865Z,7
2023-02-26T14:10:24.776Z,6
2023-02-26T14:11:38.663Z,10
2023-02-26T14:12:45.554Z,7
2023-02-26T14:13:54.339Z,7
2023-02-26T14:15:09.142Z,14
2023-02-26T14:16:16.132Z,9
2023-02-26T14:17:29.919Z,5
2023-02-26T14:18:46.893Z,6
2023-02-26T14:19:53.860Z,8
2023-02-26T14:21:00.704Z,9
2023-02-26T14:22:17.846Z,6
2023-02-26T14:23:25.731Z,19
2023-02-26T14:24:32.704Z,12
2023-02-26T14:25:42.303Z,10
2023-02-26T14:26:51.897Z,8
2023-02-26T14:28:03.718Z,5
2023-02-26T14:29:20.620Z,6
2023-02-26T14:30:30.810Z,5
2023-02-26T14:31:38.317Z,4
2023-02-26T14:32:52.938Z,4
2023-02-26T14:34:04.870Z,6
2023-02-26T14:35:11.743Z,6
2023-02-26T14:36:23.869Z,5
2023-02-26T14:37:35.780Z,6
2023-02-26T14:38:44.360Z,7
2023-02-26T14:39:51.244Z,6
2023-02-26T14:41:02.446Z,5
2023-02-26T14:42:09.303Z,4
2023-02-26T14:43:21.224Z,5
2023-02-26T14:44:38.139Z,5
2023-02-26T14:45:48.090Z,5
2023-02-26T14:46:55.210Z,4
2023-02-26T14:48:02.302Z,4
2023-02-26T14:49:09.897Z,5
2023-02-26T14:50:21.772Z,5
2023-02-26T14:51:28.990Z,6
2023-02-26T14:52:45.637Z,6
2023-02-26T14:54:01.046Z,7
2023-02-26T14:55:12.929Z,6
2023-02-26T14:56:24.852Z,5
2023-02-26T14:57:34.304Z,5
2023-02-26T14:58:49.955Z,5
2023-02-26T15:00:04.787Z,5
2023-02-26T15:01:32.101Z,6
2023-02-26T15:02:36.515Z,6
2023-02-26T15:03:49.221Z,8
2023-02-26T15:05:06.169Z,13
2023-02-26T15:06:23.157Z,7
2023-02-26T15:07:35.086Z,6
2023-02-26T15:08:44.474Z,6
2023-02-26T15:10:02.322Z,6
2023-02-26T15:11:19.318Z,7
2023-02-26T15:12:32.317Z,8
2023-02-26T15:13:44.262Z,6
2023-02-26T15:15:01.241Z,5
2023-02-26T15:16:15.931Z,5
2023-02-26T15:17:32.785Z,5
2023-02-26T15:18:45.430Z,5
2023-02-26T15:19:52.339Z,5
2023-02-26T15:21:01.815Z,5
2023-02-26T15:22:19.462Z,5
2023-02-26T15:23:34.351Z,5
2023-02-26T15:24:46.573Z,4
2023-02-26T15:25:53.463Z,8
2023-02-26T15:27:00.372Z,6
2023-02-26T15:28:07.284Z,5
2023-02-26T15:29:14.115Z,3
2023-02-26T15:30:20.987Z,4
2023-02-26T15:31:27.955Z,4
2023-02-26T15:32:34.706Z,4
2023-02-26T15:33:41.636Z,4
2023-02-26T15:34:49.360Z,5
2023-02-26T15:36:03.736Z,5
2023-02-26T15:37:11.627Z,4
2023-02-26T15:38:18.502Z,5
2023-02-26T15:39:26.334Z,5
2023-02-26T15:40:33.202Z,4
2023-02-26T15:41:40.023Z,4
2023-02-26T15:42:46.849Z,5
2023-02-26T15:43:56.264Z,5
2023-02-26T15:45:08.232Z,4
2023-02-26T15:46:16.072Z,4
2023-02-26T15:47:22.956Z,3
2023-02-26T15:48:31.851Z,4
2023-02-26T15:49:38.728Z,5
2023-02-26T15:50:45.626Z,6
2023-02-26T15:51:52.420Z,7
2023-02-26T15:53:00.033Z,5
2023-02-26T15:54:06.834Z,5
2023-02-26T15:55:13.706Z,13
2023-02-26T15:56:20.598Z,13
2023-02-26T15:57:27.488Z,11
2023-02-26T15:58:35.935Z,11
2023-02-26T15:59:42.808Z,9
2023-02-26T16:00:50.551Z,7
2023-02-26T16:01:57.545Z,5
2023-02-26T16:03:04.784Z,5
2023-02-26T16:04:11.508Z,5
2023-02-26T16:05:23.762Z,5
2023-02-26T16:06:30.682Z,5
2023-02-26T16:07:39.302Z,6
2023-02-26T16:08:47.068Z,5
2023-02-26T16:09:54.831Z,5
2023-02-26T16:11:02.934Z,6
2023-02-26T16:12:09.818Z,6
2023-02-26T16:13:19.295Z,6
2023-02-26T16:14:26.386Z,5
2023-02-26T16:15:39.111Z,5
2023-02-26T16:16:46.712Z,6
2023-02-26T16:17:54.474Z,7
2023-02-26T16:19:01.317Z,6
2023-02-26T16:20:10.998Z,7
2023-02-26T16:21:17.126Z,6
2023-02-26T16:22:31.638Z,6
2023-02-26T16:23:38.507Z,5
2023-02-26T16:24:48.549Z,6
2023-02-26T16:26:03.393Z,6
2023-02-26T16:27:10.389Z,6
2023-02-26T16:28:17.324Z,5
2023-02-26T16:29:29.207Z,5
2023-02-26T16:30:36.153Z,6
2023-02-26T16:31:43.214Z,5
2023-02-26T16:32:49.865Z,6
2023-02-26T16:33:56.738Z,5
2023-02-26T16:35:03.636Z,5
2023-02-26T16:36:15.556Z,5
2023-02-26T16:37:22.415Z,5
2023-02-26T16:38:29.327Z,5
2023-02-26T16:39:36.428Z,5
2023-02-26T16:40:44.320Z,5
2023-02-26T16:41:51.207Z,5
2023-02-26T16:43:06.182Z,6
2023-02-26T16:44:17.964Z,5
2023-02-26T16:45:29.890Z,7
2023-02-26T16:46:39.628Z,6
2023-02-26T16:47:46.510Z,5
2023-02-26T16:48:53.356Z,5
2023-02-26T16:50:03.200Z,5
2023-02-26T16:51:12.391Z,5
2023-02-26T16:52:19.289Z,5
2023-02-26T16:53:26.192Z,6
2023-02-26T16:54:39.851Z,6
2023-02-26T16:55:46.734Z,6
2023-02-26T16:56:56.550Z,6
2023-02-26T16:58:04.084Z,6
2023-02-26T16:59:10.322Z,7
2023-02-26T17:00:24.706Z,7
2023-02-26T17:01:34.230Z,7